sensor_id;sensor_type;location;lat;lon;timestamp;P1;durP1;ratioP1;P2;durP2;ratioP2
15699;SDS011;7950;42.744;23.174;2022-12-07T00:01:43;30.93;;;19.77;;
15699;SDS011;7950;42.744;23.174;2022-12-07T00:04:13;28.00;;;17.70;;
15699;SDS011;7950;42.744;23.174;2022-12-07T00:06:43;23.77;;;16.07;;
15699;SDS011;7950;42.744;23.174;2022-12-07T00:09:15;29.97;;;18.43;;
15699;SDS011;7950;42.744;23.174;2022-12-07T00:11:45;27.20;;;16.87;;
15699;SDS011;7950;42.744;23.174;2022-12-07T00:20:03;25.67;;;16.27;;
15699;SDS011;7950;42.744;23.174;2022-12-07T00:22:34;25.77;;;16.80;;
15699;SDS011;7950;42.744;23.174;2022-12-07T00:25:02;25.83;;;15.77;;
15699;SDS011;7950;42.744;23.174;2022-12-07T00:30:28;25.70;;;14.77;;
15699;SDS011;7950;42.744;23.174;2022-12-07T00:32:56;24.73;;;14.37;;
15699;SDS011;7950;42.744;23.174;2022-12-07T00:35:25;22.17;;;13.43;;
15699;SDS011;7950;42.744;23.174;2022-12-07T00:37:54;23.97;;;14.50;;
15699;SDS011;7950;42.744;23.174;2022-12-07T00:40:22;44.97;;;23.87;;
15699;SDS011;7950;42.744;23.174;2022-12-07T00:45:45;28.53;;;16.33;;
15699;SDS011;7950;42.744;23.174;2022-12-07T00:48:13;26.87;;;15.97;;
15699;SDS011;7950;42.744;23.174;2022-12-07T00:50:41;26.10;;;16.43;;
15699;SDS011;7950;42.744;23.174;2022-12-07T00:53:11;25.43;;;15.53;;
15699;SDS011;7950;42.744;23.174;2022-12-07T00:55:40;23.87;;;15.70;;
15699;SDS011;7950;42.744;23.174;2022-12-07T00:58:10;25.77;;;16.37;;
15699;SDS011;7950;42.744;23.174;2022-12-07T01:00:39;25.00;;;16.00;;
15699;SDS011;7950;42.744;23.174;2022-12-07T01:03:09;27.60;;;16.23;;
15699;SDS011;7950;42.744;23.174;2022-12-07T01:05:39;22.27;;;14.23;;
15699;SDS011;7950;42.744;23.174;2022-12-07T01:08:08;23.70;;;14.10;;
15699;SDS011;7950;42.744;23.174;2022-12-07T01:10:43;22.17;;;13.47;;
15699;SDS011;7950;42.744;23.174;2022-12-07T01:13:12;22.90;;;14.40;;
15699;SDS011;7950;42.744;23.174;2022-12-07T01:15:40;20.57;;;13.20;;
15699;SDS011;7950;42.744;23.174;2022-12-07T01:18:09;22.33;;;13.27;;
15699;SDS011;7950;42.744;23.174;2022-12-07T01:20:38;24.90;;;15.13;;
15699;SDS011;7950;42.744;23.174;2022-12-07T01:23:07;20.83;;;13.50;;
15699;SDS011;7950;42.744;23.174;2022-12-07T01:25:36;24.60;;;13.67;;
15699;SDS011;7950;42.744;23.174;2022-12-07T01:28:05;21.70;;;13.03;;
15699;SDS011;7950;42.744;23.174;2022-12-07T01:30:34;23.03;;;14.37;;
15699;SDS011;7950;42.744;23.174;2022-12-07T01:33:02;24.47;;;14.37;;
15699;SDS011;7950;42.744;23.174;2022-12-07T01:35:33;22.17;;;13.33;;
15699;SDS011;7950;42.744;23.174;2022-12-07T01:38:01;27.17;;;14.37;;
15699;SDS011;7950;42.744;23.174;2022-12-07T01:40:29;21.60;;;13.03;;
15699;SDS011;7950;42.744;23.174;2022-12-07T01:43:18;23.00;;;13.80;;
15699;SDS011;7950;42.744;23.174;2022-12-07T01:45:47;22.27;;;12.73;;
15699;SDS011;7950;42.744;23.174;2022-12-07T01:48:16;24.37;;;14.20;;
15699;SDS011;7950;42.744;23.174;2022-12-07T01:50:47;18.93;;;12.13;;
15699;SDS011;7950;42.744;23.174;2022-12-07T01:53:17;25.13;;;14.30;;
15699;SDS011;7950;42.744;23.174;2022-12-07T01:55:47;21.70;;;13.27;;
15699;SDS011;7950;42.744;23.174;2022-12-07T01:58:20;21.70;;;12.97;;
15699;SDS011;7950;42.744;23.174;2022-12-07T02:00:49;22.70;;;12.33;;
15699;SDS011;7950;42.744;23.174;2022-12-07T02:03:18;21.20;;;12.60;;
15699;SDS011;7950;42.744;23.174;2022-12-07T02:06:03;21.73;;;12.37;;
15699;SDS011;7950;42.744;23.174;2022-12-07T02:08:34;24.77;;;14.40;;
15699;SDS011;7950;42.744;23.174;2022-12-07T02:11:03;24.03;;;13.17;;
15699;SDS011;7950;42.744;23.174;2022-12-07T02:13:35;23.33;;;12.73;;
15699;SDS011;7950;42.744;23.174;2022-12-07T02:16:09;19.90;;;12.87;;
15699;SDS011;7950;42.744;23.174;2022-12-07T02:18:52;22.23;;;13.40;;
15699;SDS011;7950;42.744;23.174;2022-12-07T02:21:29;23.27;;;13.57;;
15699;SDS011;7950;42.744;23.174;2022-12-07T02:27:24;21.97;;;12.43;;
15699;SDS011;7950;42.744;23.174;2022-12-07T02:30:10;21.13;;;12.10;;
15699;SDS011;7950;42.744;23.174;2022-12-07T02:32:42;20.07;;;13.13;;
15699;SDS011;7950;42.744;23.174;2022-12-07T02:35:19;20.23;;;12.77;;
15699;SDS011;7950;42.744;23.174;2022-12-07T02:37:53;23.03;;;14.10;;
15699;SDS011;7950;42.744;23.174;2022-12-07T02:40:29;22.33;;;14.03;;
15699;SDS011;7950;42.744;23.174;2022-12-07T02:43:04;22.83;;;13.20;;
15699;SDS011;7950;42.744;23.174;2022-12-07T02:45:38;21.93;;;12.27;;
15699;SDS011;7950;42.744;23.174;2022-12-07T02:48:08;19.53;;;11.40;;
15699;SDS011;7950;42.744;23.174;2022-12-07T02:50:39;21.73;;;12.93;;
15699;SDS011;7950;42.744;23.174;2022-12-07T02:55:56;25.00;;;14.20;;
15699;SDS011;7950;42.744;23.174;2022-12-07T02:58:28;24.23;;;13.47;;
15699;SDS011;7950;42.744;23.174;2022-12-07T03:01:11;24.17;;;13.10;;
15699;SDS011;7950;42.744;23.174;2022-12-07T03:03:58;23.23;;;12.97;;
15699;SDS011;7950;42.744;23.174;2022-12-07T03:06:35;22.47;;;12.63;;
15699;SDS011;7950;42.744;23.174;2022-12-07T03:09:11;23.00;;;14.43;;
15699;SDS011;7950;42.744;23.174;2022-12-07T03:14:44;23.17;;;14.80;;
15699;SDS011;7950;42.744;23.174;2022-12-07T03:17:19;25.43;;;15.13;;
15699;SDS011;7950;42.744;23.174;2022-12-07T03:19:53;23.83;;;12.43;;
15699;SDS011;7950;42.744;23.174;2022-12-07T03:22:24;25.70;;;13.03;;
15699;SDS011;7950;42.744;23.174;2022-12-07T03:24:59;20.20;;;12.17;;
15699;SDS011;7950;42.744;23.174;2022-12-07T03:27:31;23.77;;;13.77;;
15699;SDS011;7950;42.744;23.174;2022-12-07T03:30:04;23.67;;;12.67;;
15699;SDS011;7950;42.744;23.174;2022-12-07T03:32:37;24.47;;;13.57;;
15699;SDS011;7950;42.744;23.174;2022-12-07T03:35:11;27.13;;;13.67;;
15699;SDS011;7950;42.744;23.174;2022-12-07T03:37:45;22.47;;;13.17;;
15699;SDS011;7950;42.744;23.174;2022-12-07T03:40:18;24.37;;;13.80;;
15699;SDS011;7950;42.744;23.174;2022-12-07T03:45:43;22.30;;;13.43;;
15699;SDS011;7950;42.744;23.174;2022-12-07T03:48:20;22.17;;;12.83;;
15699;SDS011;7950;42.744;23.174;2022-12-07T03:50:53;19.30;;;12.13;;
15699;SDS011;7950;42.744;23.174;2022-12-07T03:53:29;23.50;;;13.67;;
15699;SDS011;7950;42.744;23.174;2022-12-07T03:58:51;19.70;;;12.07;;
15699;SDS011;7950;42.744;23.174;2022-12-07T04:01:22;23.53;;;13.07;;
15699;SDS011;7950;42.744;23.174;2022-12-07T04:03:52;23.37;;;13.30;;
15699;SDS011;7950;42.744;23.174;2022-12-07T04:06:20;31.10;;;16.43;;
15699;SDS011;7950;42.744;23.174;2022-12-07T04:08:49;24.53;;;13.43;;
15699;SDS011;7950;42.744;23.174;2022-12-07T04:11:17;19.87;;;11.90;;
15699;SDS011;7950;42.744;23.174;2022-12-07T04:13:45;23.07;;;12.47;;
15699;SDS011;7950;42.744;23.174;2022-12-07T04:16:51;24.03;;;13.93;;
15699;SDS011;7950;42.744;23.174;2022-12-07T04:19:24;24.97;;;14.23;;
15699;SDS011;7950;42.744;23.174;2022-12-07T04:21:55;21.40;;;13.10;;
15699;SDS011;7950;42.744;23.174;2022-12-07T04:24:23;20.27;;;11.57;;
15699;SDS011;7950;42.744;23.174;2022-12-07T04:26:52;17.83;;;11.07;;
15699;SDS011;7950;42.744;23.174;2022-12-07T04:29:21;20.70;;;12.47;;
15699;SDS011;7950;42.744;23.174;2022-12-07T04:31:49;24.87;;;12.93;;
15699;SDS011;7950;42.744;23.174;2022-12-07T04:34:18;20.80;;;12.57;;
15699;SDS011;7950;42.744;23.174;2022-12-07T04:36:48;24.50;;;12.37;;
15699;SDS011;7950;42.744;23.174;2022-12-07T04:39:18;20.10;;;12.80;;
15699;SDS011;7950;42.744;23.174;2022-12-07T04:41:48;20.70;;;12.13;;
15699;SDS011;7950;42.744;23.174;2022-12-07T04:44:17;21.13;;;12.80;;
15699;SDS011;7950;42.744;23.174;2022-12-07T04:46:46;25.93;;;13.67;;
15699;SDS011;7950;42.744;23.174;2022-12-07T04:49:15;39.03;;;22.03;;
15699;SDS011;7950;42.744;23.174;2022-12-07T04:51:44;27.60;;;18.37;;
15699;SDS011;7950;42.744;23.174;2022-12-07T04:54:14;21.77;;;13.57;;
15699;SDS011;7950;42.744;23.174;2022-12-07T04:56:43;25.30;;;14.67;;
15699;SDS011;7950;42.744;23.174;2022-12-07T04:59:12;24.27;;;13.93;;
15699;SDS011;7950;42.744;23.174;2022-12-07T05:01:41;23.63;;;13.30;;
15699;SDS011;7950;42.744;23.174;2022-12-07T05:04:10;20.37;;;12.73;;
15699;SDS011;7950;42.744;23.174;2022-12-07T05:06:38;23.30;;;13.40;;
15699;SDS011;7950;42.744;23.174;2022-12-07T05:09:07;24.37;;;13.57;;
15699;SDS011;7950;42.744;23.174;2022-12-07T05:11:37;21.57;;;12.63;;
15699;SDS011;7950;42.744;23.174;2022-12-07T05:14:09;24.33;;;13.47;;
15699;SDS011;7950;42.744;23.174;2022-12-07T05:16:40;24.93;;;13.70;;
15699;SDS011;7950;42.744;23.174;2022-12-07T05:19:09;23.43;;;14.67;;
15699;SDS011;7950;42.744;23.174;2022-12-07T05:21:38;21.43;;;13.20;;
15699;SDS011;7950;42.744;23.174;2022-12-07T05:24:07;22.53;;;13.13;;
15699;SDS011;7950;42.744;23.174;2022-12-07T05:26:39;20.13;;;12.13;;
15699;SDS011;7950;42.744;23.174;2022-12-07T05:29:07;21.27;;;13.03;;
15699;SDS011;7950;42.744;23.174;2022-12-07T05:31:38;21.37;;;12.97;;
15699;SDS011;7950;42.744;23.174;2022-12-07T05:34:07;21.73;;;13.17;;
15699;SDS011;7950;42.744;23.174;2022-12-07T05:36:36;22.90;;;13.67;;
15699;SDS011;7950;42.744;23.174;2022-12-07T05:39:04;21.13;;;12.70;;
15699;SDS011;7950;42.744;23.174;2022-12-07T05:41:33;23.50;;;12.53;;
15699;SDS011;7950;42.744;23.174;2022-12-07T05:44:20;22.73;;;12.87;;
15699;SDS011;7950;42.744;23.174;2022-12-07T05:46:48;19.40;;;12.50;;
15699;SDS011;7950;42.744;23.174;2022-12-07T05:49:17;23.57;;;14.00;;
15699;SDS011;7950;42.744;23.174;2022-12-07T05:51:45;20.63;;;12.67;;
15699;SDS011;7950;42.744;23.174;2022-12-07T05:54:13;23.43;;;13.73;;
15699;SDS011;7950;42.744;23.174;2022-12-07T05:56:41;22.97;;;13.67;;
15699;SDS011;7950;42.744;23.174;2022-12-07T05:59:10;20.80;;;13.27;;
15699;SDS011;7950;42.744;23.174;2022-12-07T06:01:52;21.60;;;13.13;;
15699;SDS011;7950;42.744;23.174;2022-12-07T06:04:22;20.73;;;12.23;;
15699;SDS011;7950;42.744;23.174;2022-12-07T06:07:03;24.27;;;13.03;;
15699;SDS011;7950;42.744;23.174;2022-12-07T06:09:31;22.20;;;13.07;;
15699;SDS011;7950;42.744;23.174;2022-12-07T06:12:00;23.97;;;14.67;;
15699;SDS011;7950;42.744;23.174;2022-12-07T06:14:46;25.07;;;15.33;;
15699;SDS011;7950;42.744;23.174;2022-12-07T06:17:16;23.93;;;15.00;;
15699;SDS011;7950;42.744;23.174;2022-12-07T06:19:44;22.80;;;13.93;;
15699;SDS011;7950;42.744;23.174;2022-12-07T06:22:12;27.23;;;14.57;;
15699;SDS011;7950;42.744;23.174;2022-12-07T06:24:42;28.67;;;17.27;;
15699;SDS011;7950;42.744;23.174;2022-12-07T06:27:11;27.10;;;16.07;;
15699;SDS011;7950;42.744;23.174;2022-12-07T06:29:39;26.13;;;16.50;;
15699;SDS011;7950;42.744;23.174;2022-12-07T06:32:07;24.67;;;13.97;;
15699;SDS011;7950;42.744;23.174;2022-12-07T06:37:30;24.77;;;14.40;;
15699;SDS011;7950;42.744;23.174;2022-12-07T06:39:59;23.93;;;14.37;;
15699;SDS011;7950;42.744;23.174;2022-12-07T06:42:28;27.77;;;16.90;;
15699;SDS011;7950;42.744;23.174;2022-12-07T06:44:56;29.47;;;16.60;;
15699;SDS011;7950;42.744;23.174;2022-12-07T06:47:25;32.03;;;17.77;;
15699;SDS011;7950;42.744;23.174;2022-12-07T06:50:13;35.23;;;19.20;;
15699;SDS011;7950;42.744;23.174;2022-12-07T06:52:42;30.30;;;18.13;;
15699;SDS011;7950;42.744;23.174;2022-12-07T06:55:10;35.53;;;19.80;;
15699;SDS011;7950;42.744;23.174;2022-12-07T06:57:39;34.87;;;18.53;;
15699;SDS011;7950;42.744;23.174;2022-12-07T07:00:07;27.20;;;15.27;;
15699;SDS011;7950;42.744;23.174;2022-12-07T07:02:36;35.73;;;17.00;;
15699;SDS011;7950;42.744;23.174;2022-12-07T07:05:04;29.27;;;16.97;;
15699;SDS011;7950;42.744;23.174;2022-12-07T07:07:34;26.93;;;16.70;;
15699;SDS011;7950;42.744;23.174;2022-12-07T07:10:23;31.70;;;18.13;;
15699;SDS011;7950;42.744;23.174;2022-12-07T07:12:51;30.47;;;17.73;;
15699;SDS011;7950;42.744;23.174;2022-12-07T07:15:23;25.13;;;15.23;;
15699;SDS011;7950;42.744;23.174;2022-12-07T07:17:51;27.40;;;16.40;;
15699;SDS011;7950;42.744;23.174;2022-12-07T07:20:19;31.07;;;15.73;;
15699;SDS011;7950;42.744;23.174;2022-12-07T07:22:49;27.40;;;15.93;;
15699;SDS011;7950;42.744;23.174;2022-12-07T07:25:18;26.40;;;16.17;;
15699;SDS011;7950;42.744;23.174;2022-12-07T07:27:46;29.37;;;16.83;;
15699;SDS011;7950;42.744;23.174;2022-12-07T07:30:14;34.73;;;19.70;;
15699;SDS011;7950;42.744;23.174;2022-12-07T07:32:43;28.23;;;17.90;;
15699;SDS011;7950;42.744;23.174;2022-12-07T07:35:11;30.37;;;18.87;;
15699;SDS011;7950;42.744;23.174;2022-12-07T07:37:51;30.13;;;17.70;;
15699;SDS011;7950;42.744;23.174;2022-12-07T07:40:19;33.90;;;19.00;;
15699;SDS011;7950;42.744;23.174;2022-12-07T07:42:47;42.07;;;22.87;;
15699;SDS011;7950;42.744;23.174;2022-12-07T07:45:16;30.47;;;17.73;;
15699;SDS011;7950;42.744;23.174;2022-12-07T07:47:44;37.60;;;21.80;;
15699;SDS011;7950;42.744;23.174;2022-12-07T07:50:13;57.63;;;30.70;;
15699;SDS011;7950;42.744;23.174;2022-12-07T07:52:42;33.73;;;18.53;;
15699;SDS011;7950;42.744;23.174;2022-12-07T07:55:12;30.70;;;17.23;;
15699;SDS011;7950;42.744;23.174;2022-12-07T07:57:41;24.77;;;14.87;;
15699;SDS011;7950;42.744;23.174;2022-12-07T08:00:16;24.40;;;13.60;;
15699;SDS011;7950;42.744;23.174;2022-12-07T08:02:45;28.93;;;15.63;;
15699;SDS011;7950;42.744;23.174;2022-12-07T08:05:14;25.10;;;14.97;;
15699;SDS011;7950;42.744;23.174;2022-12-07T08:07:42;25.23;;;14.50;;
15699;SDS011;7950;42.744;23.174;2022-12-07T08:13:07;28.50;;;16.40;;
15699;SDS011;7950;42.744;23.174;2022-12-07T08:15:40;29.97;;;16.97;;
15699;SDS011;7950;42.744;23.174;2022-12-07T08:18:10;31.77;;;16.83;;
15699;SDS011;7950;42.744;23.174;2022-12-07T08:20:40;29.17;;;16.57;;
15699;SDS011;7950;42.744;23.174;2022-12-07T08:23:09;28.80;;;16.57;;
15699;SDS011;7950;42.744;23.174;2022-12-07T08:25:40;29.37;;;15.90;;
15699;SDS011;7950;42.744;23.174;2022-12-07T08:28:08;25.87;;;16.17;;
15699;SDS011;7950;42.744;23.174;2022-12-07T08:30:36;30.00;;;17.70;;
15699;SDS011;7950;42.744;23.174;2022-12-07T08:33:05;24.50;;;15.43;;
15699;SDS011;7950;42.744;23.174;2022-12-07T08:35:33;23.67;;;15.10;;
15699;SDS011;7950;42.744;23.174;2022-12-07T08:38:02;27.77;;;17.57;;
15699;SDS011;7950;42.744;23.174;2022-12-07T08:40:30;24.07;;;15.53;;
15699;SDS011;7950;42.744;23.174;2022-12-07T08:43:00;29.17;;;15.43;;
15699;SDS011;7950;42.744;23.174;2022-12-07T08:45:28;25.33;;;16.17;;
15699;SDS011;7950;42.744;23.174;2022-12-07T08:48:02;23.03;;;15.73;;
15699;SDS011;7950;42.744;23.174;2022-12-07T08:50:34;29.27;;;18.57;;
15699;SDS011;7950;42.744;23.174;2022-12-07T08:53:11;37.50;;;22.80;;
15699;SDS011;7950;42.744;23.174;2022-12-07T08:55:39;27.13;;;15.87;;
15699;SDS011;7950;42.744;23.174;2022-12-07T08:58:09;24.37;;;14.97;;
15699;SDS011;7950;42.744;23.174;2022-12-07T09:03:31;24.77;;;15.73;;
15699;SDS011;7950;42.744;23.174;2022-12-07T09:06:00;24.37;;;15.63;;
15699;SDS011;7950;42.744;23.174;2022-12-07T09:08:29;24.57;;;15.37;;
15699;SDS011;7950;42.744;23.174;2022-12-07T09:11:04;26.83;;;15.90;;
15699;SDS011;7950;42.744;23.174;2022-12-07T09:13:34;30.63;;;17.17;;
15699;SDS011;7950;42.744;23.174;2022-12-07T09:16:02;30.67;;;19.03;;
15699;SDS011;7950;42.744;23.174;2022-12-07T09:18:31;31.73;;;18.37;;
15699;SDS011;7950;42.744;23.174;2022-12-07T09:20:59;32.37;;;17.47;;
15699;SDS011;7950;42.744;23.174;2022-12-07T09:23:27;28.93;;;17.97;;
15699;SDS011;7950;42.744;23.174;2022-12-07T09:25:58;26.93;;;16.50;;
15699;SDS011;7950;42.744;23.174;2022-12-07T09:28:34;32.57;;;17.70;;
15699;SDS011;7950;42.744;23.174;2022-12-07T09:31:02;27.80;;;16.63;;
15699;SDS011;7950;42.744;23.174;2022-12-07T09:33:54;32.90;;;19.13;;
15699;SDS011;7950;42.744;23.174;2022-12-07T09:36:23;27.23;;;18.17;;
15699;SDS011;7950;42.744;23.174;2022-12-07T09:38:51;30.23;;;18.53;;
15699;SDS011;7950;42.744;23.174;2022-12-07T09:41:20;30.87;;;17.97;;
15699;SDS011;7950;42.744;23.174;2022-12-07T09:43:51;28.63;;;17.23;;
15699;SDS011;7950;42.744;23.174;2022-12-07T09:46:22;26.47;;;17.93;;
15699;SDS011;7950;42.744;23.174;2022-12-07T09:48:50;28.00;;;17.63;;
15699;SDS011;7950;42.744;23.174;2022-12-07T09:51:19;28.83;;;17.23;;
15699;SDS011;7950;42.744;23.174;2022-12-07T09:53:52;29.73;;;19.57;;
15699;SDS011;7950;42.744;23.174;2022-12-07T09:56:21;33.03;;;18.70;;
15699;SDS011;7950;42.744;23.174;2022-12-07T09:58:54;27.80;;;18.00;;
15699;SDS011;7950;42.744;23.174;2022-12-07T10:01:27;30.87;;;19.33;;
15699;SDS011;7950;42.744;23.174;2022-12-07T10:04:05;30.20;;;19.23;;
15699;SDS011;7950;42.744;23.174;2022-12-07T10:06:39;33.50;;;20.67;;
15699;SDS011;7950;42.744;23.174;2022-12-07T10:09:09;34.27;;;21.43;;
15699;SDS011;7950;42.744;23.174;2022-12-07T10:14:31;33.90;;;22.00;;
15699;SDS011;7950;42.744;23.174;2022-12-07T10:17:34;33.30;;;21.33;;
15699;SDS011;7950;42.744;23.174;2022-12-07T10:20:10;34.23;;;21.90;;
15699;SDS011;7950;42.744;23.174;2022-12-07T10:22:53;36.67;;;23.47;;
15699;SDS011;7950;42.744;23.174;2022-12-07T10:25:24;36.27;;;22.50;;
15699;SDS011;7950;42.744;23.174;2022-12-07T10:27:57;36.90;;;22.70;;
15699;SDS011;7950;42.744;23.174;2022-12-07T10:30:32;33.93;;;21.33;;
15699;SDS011;7950;42.744;23.174;2022-12-07T10:33:00;35.87;;;21.30;;
15699;SDS011;7950;42.744;23.174;2022-12-07T10:35:29;38.43;;;23.30;;
15699;SDS011;7950;42.744;23.174;2022-12-07T10:37:58;39.90;;;25.00;;
15699;SDS011;7950;42.744;23.174;2022-12-07T10:40:29;38.73;;;22.73;;
15699;SDS011;7950;42.744;23.174;2022-12-07T10:43:04;36.47;;;22.50;;
15699;SDS011;7950;42.744;23.174;2022-12-07T10:46:01;36.33;;;21.90;;
15699;SDS011;7950;42.744;23.174;2022-12-07T10:48:52;34.53;;;20.57;;
15699;SDS011;7950;42.744;23.174;2022-12-07T10:51:32;34.03;;;22.17;;
15699;SDS011;7950;42.744;23.174;2022-12-07T10:54:09;32.67;;;21.13;;
15699;SDS011;7950;42.744;23.174;2022-12-07T11:02:40;41.23;;;26.57;;
15699;SDS011;7950;42.744;23.174;2022-12-07T11:05:26;36.93;;;23.53;;
15699;SDS011;7950;42.744;23.174;2022-12-07T11:08:03;42.57;;;26.03;;
15699;SDS011;7950;42.744;23.174;2022-12-07T11:10:44;39.80;;;25.13;;
15699;SDS011;7950;42.744;23.174;2022-12-07T11:13:22;39.13;;;24.03;;
15699;SDS011;7950;42.744;23.174;2022-12-07T11:19:14;38.97;;;23.10;;
15699;SDS011;7950;42.744;23.174;2022-12-07T11:22:00;38.80;;;24.77;;
15699;SDS011;7950;42.744;23.174;2022-12-07T11:24:35;42.17;;;24.73;;
15699;SDS011;7950;42.744;23.174;2022-12-07T11:27:15;37.67;;;23.37;;
15699;SDS011;7950;42.744;23.174;2022-12-07T11:29:55;42.63;;;24.57;;
15699;SDS011;7950;42.744;23.174;2022-12-07T11:32:40;36.43;;;22.93;;
15699;SDS011;7950;42.744;23.174;2022-12-07T11:35:29;39.83;;;24.93;;
15699;SDS011;7950;42.744;23.174;2022-12-07T11:38:07;37.77;;;22.93;;
15699;SDS011;7950;42.744;23.174;2022-12-07T11:40:40;38.03;;;24.20;;
15699;SDS011;7950;42.744;23.174;2022-12-07T11:43:14;38.53;;;24.63;;
15699;SDS011;7950;42.744;23.174;2022-12-07T11:45:52;41.20;;;24.87;;
15699;SDS011;7950;42.744;23.174;2022-12-07T11:48:29;41.03;;;23.73;;
15699;SDS011;7950;42.744;23.174;2022-12-07T11:51:02;38.70;;;24.30;;
15699;SDS011;7950;42.744;23.174;2022-12-07T11:53:32;41.90;;;28.80;;
15699;SDS011;7950;42.744;23.174;2022-12-07T11:56:07;45.00;;;27.37;;
15699;SDS011;7950;42.744;23.174;2022-12-07T11:58:41;42.93;;;26.43;;
15699;SDS011;7950;42.744;23.174;2022-12-07T12:01:18;38.87;;;26.43;;
15699;SDS011;7950;42.744;23.174;2022-12-07T12:03:58;41.20;;;25.27;;
15699;SDS011;7950;42.744;23.174;2022-12-07T12:06:35;40.40;;;24.73;;
15699;SDS011;7950;42.744;23.174;2022-12-07T12:09:04;38.13;;;22.43;;
15699;SDS011;7950;42.744;23.174;2022-12-07T12:15:49;36.63;;;22.63;;
15699;SDS011;7950;42.744;23.174;2022-12-07T12:18:40;39.83;;;24.97;;
15699;SDS011;7950;42.744;23.174;2022-12-07T12:21:22;40.57;;;23.53;;
15699;SDS011;7950;42.744;23.174;2022-12-07T12:23:57;36.20;;;23.43;;
15699;SDS011;7950;42.744;23.174;2022-12-07T12:26:29;34.77;;;21.67;;
15699;SDS011;7950;42.744;23.174;2022-12-07T12:29:00;30.27;;;20.60;;
15699;SDS011;7950;42.744;23.174;2022-12-07T12:31:34;34.83;;;21.57;;
15699;SDS011;7950;42.744;23.174;2022-12-07T12:36:58;35.43;;;20.70;;
15699;SDS011;7950;42.744;23.174;2022-12-07T12:39:28;34.93;;;20.83;;
15699;SDS011;7950;42.744;23.174;2022-12-07T12:41:57;32.63;;;20.60;;
15699;SDS011;7950;42.744;23.174;2022-12-07T12:50:27;33.57;;;19.43;;
15699;SDS011;7950;42.744;23.174;2022-12-07T12:53:19;33.03;;;20.77;;
15699;SDS011;7950;42.744;23.174;2022-12-07T13:01:53;33.03;;;20.70;;
15699;SDS011;7950;42.744;23.174;2022-12-07T13:04:28;33.17;;;22.17;;
15699;SDS011;7950;42.744;23.174;2022-12-07T13:07:04;27.87;;;18.23;;
15699;SDS011;7950;42.744;23.174;2022-12-07T13:09:37;29.63;;;17.30;;
15699;SDS011;7950;42.744;23.174;2022-12-07T13:12:14;25.77;;;16.67;;
15699;SDS011;7950;42.744;23.174;2022-12-07T13:18:00;25.40;;;14.50;;
15699;SDS011;7950;42.744;23.174;2022-12-07T13:20:44;31.17;;;19.67;;
15699;SDS011;7950;42.744;23.174;2022-12-07T13:23:23;22.93;;;15.73;;
15699;SDS011;7950;42.744;23.174;2022-12-07T13:26:12;36.53;;;25.47;;
15699;SDS011;7950;42.744;23.174;2022-12-07T13:28:44;31.53;;;21.77;;
15699;SDS011;7950;42.744;23.174;2022-12-07T13:31:28;27.13;;;15.67;;
15699;SDS011;7950;42.744;23.174;2022-12-07T13:34:02;28.50;;;15.13;;
15699;SDS011;7950;42.744;23.174;2022-12-07T13:36:32;27.47;;;14.73;;
15699;SDS011;7950;42.744;23.174;2022-12-07T13:39:18;22.47;;;12.80;;
15699;SDS011;7950;42.744;23.174;2022-12-07T13:41:49;24.90;;;13.97;;
15699;SDS011;7950;42.744;23.174;2022-12-07T13:47:13;21.90;;;13.47;;
15699;SDS011;7950;42.744;23.174;2022-12-07T13:49:48;24.57;;;13.93;;
15699;SDS011;7950;42.744;23.174;2022-12-07T13:52:20;24.10;;;14.03;;
15699;SDS011;7950;42.744;23.174;2022-12-07T13:54:55;24.33;;;14.30;;
15699;SDS011;7950;42.744;23.174;2022-12-07T13:57:36;25.47;;;14.57;;
15699;SDS011;7950;42.744;23.174;2022-12-07T14:00:05;28.23;;;14.90;;
15699;SDS011;7950;42.744;23.174;2022-12-07T14:02:58;25.33;;;14.63;;
15699;SDS011;7950;42.744;23.174;2022-12-07T14:05:29;25.83;;;14.63;;
15699;SDS011;7950;42.744;23.174;2022-12-07T14:07:59;27.63;;;14.17;;
15699;SDS011;7950;42.744;23.174;2022-12-07T14:10:28;23.43;;;14.73;;
15699;SDS011;7950;42.744;23.174;2022-12-07T14:12:58;25.03;;;15.03;;
15699;SDS011;7950;42.744;23.174;2022-12-07T14:15:30;25.37;;;15.30;;
15699;SDS011;7950;42.744;23.174;2022-12-07T14:18:01;19.77;;;12.60;;
15699;SDS011;7950;42.744;23.174;2022-12-07T14:20:34;31.27;;;20.20;;
15699;SDS011;7950;42.744;23.174;2022-12-07T14:23:04;26.80;;;17.67;;
15699;SDS011;7950;42.744;23.174;2022-12-07T14:25:44;27.47;;;16.20;;
15699;SDS011;7950;42.744;23.174;2022-12-07T14:28:26;26.13;;;16.03;;
15699;SDS011;7950;42.744;23.174;2022-12-07T14:30:56;29.07;;;16.63;;
15699;SDS011;7950;42.744;23.174;2022-12-07T14:33:25;24.47;;;14.77;;
15699;SDS011;7950;42.744;23.174;2022-12-07T14:35:55;22.97;;;16.40;;
15699;SDS011;7950;42.744;23.174;2022-12-07T14:38:32;24.57;;;15.30;;
15699;SDS011;7950;42.744;23.174;2022-12-07T14:41:00;22.37;;;15.30;;
15699;SDS011;7950;42.744;23.174;2022-12-07T14:43:42;23.27;;;16.27;;
15699;SDS011;7950;42.744;23.174;2022-12-07T14:46:30;23.77;;;15.50;;
15699;SDS011;7950;42.744;23.174;2022-12-07T14:48:59;24.57;;;16.30;;
15699;SDS011;7950;42.744;23.174;2022-12-07T14:51:48;26.40;;;17.30;;
15699;SDS011;7950;42.744;23.174;2022-12-07T14:54:37;32.30;;;19.50;;
15699;SDS011;7950;42.744;23.174;2022-12-07T14:57:06;28.17;;;17.23;;
15699;SDS011;7950;42.744;23.174;2022-12-07T14:59:36;30.60;;;18.50;;
15699;SDS011;7950;42.744;23.174;2022-12-07T15:02:11;34.23;;;18.03;;
15699;SDS011;7950;42.744;23.174;2022-12-07T15:07:43;28.57;;;18.80;;
15699;SDS011;7950;42.744;23.174;2022-12-07T15:10:13;35.40;;;26.70;;
15699;SDS011;7950;42.744;23.174;2022-12-07T15:12:49;51.87;;;28.90;;
15699;SDS011;7950;42.744;23.174;2022-12-07T15:15:18;39.57;;;22.13;;
15699;SDS011;7950;42.744;23.174;2022-12-07T15:20:39;32.43;;;20.23;;
15699;SDS011;7950;42.744;23.174;2022-12-07T15:23:08;29.63;;;18.23;;
15699;SDS011;7950;42.744;23.174;2022-12-07T15:25:40;23.73;;;15.10;;
15699;SDS011;7950;42.744;23.174;2022-12-07T15:28:08;23.70;;;14.87;;
15699;SDS011;7950;42.744;23.174;2022-12-07T15:30:37;27.47;;;15.80;;
15699;SDS011;7950;42.744;23.174;2022-12-07T15:33:05;28.90;;;17.60;;
15699;SDS011;7950;42.744;23.174;2022-12-07T15:35:37;25.50;;;16.37;;
15699;SDS011;7950;42.744;23.174;2022-12-07T15:38:06;28.07;;;18.33;;
15699;SDS011;7950;42.744;23.174;2022-12-07T15:40:36;41.33;;;22.97;;
15699;SDS011;7950;42.744;23.174;2022-12-07T15:43:05;30.80;;;18.83;;
15699;SDS011;7950;42.744;23.174;2022-12-07T15:45:55;29.37;;;17.87;;
15699;SDS011;7950;42.744;23.174;2022-12-07T15:48:22;30.23;;;18.73;;
15699;SDS011;7950;42.744;23.174;2022-12-07T15:51:00;27.90;;;16.63;;
15699;SDS011;7950;42.744;23.174;2022-12-07T15:53:29;28.60;;;17.73;;
15699;SDS011;7950;42.744;23.174;2022-12-07T15:55:59;30.17;;;17.07;;
15699;SDS011;7950;42.744;23.174;2022-12-07T15:58:27;39.03;;;22.37;;
15699;SDS011;7950;42.744;23.174;2022-12-07T16:00:55;50.87;;;27.00;;
15699;SDS011;7950;42.744;23.174;2022-12-07T16:03:24;39.37;;;21.50;;
15699;SDS011;7950;42.744;23.174;2022-12-07T16:05:52;32.30;;;18.13;;
15699;SDS011;7950;42.744;23.174;2022-12-07T16:08:20;31.70;;;17.97;;
15699;SDS011;7950;42.744;23.174;2022-12-07T16:10:49;34.50;;;20.67;;